DLH7DI EDDF-EGLL
Flight info
| Callsign | DLH7DI |
|---|---|
| Flight time | 1h 10m |
| Altitude | 40000 |
| Route | OBOKA3D/07C OBOKA Z29 TORNU DCT ABNED L980 LOGAN |
| Aircraft | A359/H-SDE2E3GHIJ3J4J5LM1ORWXY/LB1D1 |
Departure
| Time | 2026-04-14 10:29 |
|---|---|
| Airport | Frankfurt Main Airport (EDDF) |
Arrival
| Time | 2026-04-14 11:40 |
|---|---|
| Airport | London Heathrow Airport (EGLL) |
| Time | Latitude | Longitude | Altitude | Speed | Heading |
|---|---|---|---|---|---|
| 2026-04-14 09:50 | 50.04702 | 8.56159 | 362 ft | 0 kts | 340° |
| 2026-04-14 10:15 | 50.04687 | 8.56167 | 369 ft | 3 kts | 340° |
| 2026-04-14 10:15 | 50.04669 | 8.56177 | 368 ft | 3 kts | 340° |
| 2026-04-14 10:15 | 50.04653 | 8.56187 | 369 ft | 3 kts | 340° |
| 2026-04-14 10:16 | 50.04641 | 8.56193 | 362 ft | 0 kts | 335° |
| 2026-04-14 10:16 | 50.04635 | 8.56197 | 368 ft | 3 kts | 321° |
| 2026-04-14 10:17 | 50.04622 | 8.56220 | 365 ft | 3 kts | 280° |
| 2026-04-14 10:17 | 50.04623 | 8.56250 | 364 ft | 2 kts | 249° |
| 2026-04-14 10:17 | 50.04628 | 8.56274 | 366 ft | 2 kts | 249° |
| 2026-04-14 10:17 | 50.04634 | 8.56297 | 364 ft | 2 kts | 249° |
| 2026-04-14 10:18 | 50.04645 | 8.56343 | 368 ft | 2 kts | 249° |
| 2026-04-14 10:18 | 50.04651 | 8.56366 | 366 ft | 2 kts | 249° |
| 2026-04-14 10:18 | 50.04656 | 8.56389 | 366 ft | 2 kts | 249° |
| 2026-04-14 10:19 | 50.04659 | 8.56400 | 368 ft | 0 kts | 249° |
| 2026-04-14 10:20 | 50.04655 | 8.56386 | 366 ft | 6 kts | 249° |
| 2026-04-14 10:21 | 50.04637 | 8.56311 | 362 ft | 9 kts | 250° |
| 2026-04-14 10:21 | 50.04613 | 8.56209 | 368 ft | 12 kts | 250° |
| 2026-04-14 10:21 | 50.04587 | 8.56099 | 369 ft | 11 kts | 249° |
| 2026-04-14 10:21 | 50.04561 | 8.56003 | 365 ft | 10 kts | 240° |
| 2026-04-14 10:22 | 50.04503 | 8.55946 | 369 ft | 9 kts | 198° |
| 2026-04-14 10:22 | 50.04463 | 8.55927 | 369 ft | 7 kts | 197° |
| 2026-04-14 10:22 | 50.04403 | 8.55912 | 369 ft | 11 kts | 178° |
| 2026-04-14 10:22 | 50.04341 | 8.55934 | 365 ft | 0 kts | 161° |
| 2026-04-14 10:23 | 50.04314 | 8.55948 | 364 ft | 8 kts | 161° |
| 2026-04-14 10:23 | 50.04253 | 8.55944 | 366 ft | 10 kts | 205° |
| 2026-04-14 10:23 | 50.04175 | 8.55929 | 360 ft | 11 kts | 166° |
| 2026-04-14 10:23 | 50.04161 | 8.55935 | 366 ft | 1 kts | 163° |
| 2026-04-14 10:24 | 50.04140 | 8.55945 | 366 ft | 5 kts | 162° |
| 2026-04-14 10:24 | 50.04095 | 8.55968 | 366 ft | 9 kts | 167° |
| 2026-04-14 10:24 | 50.04040 | 8.55917 | 363 ft | 12 kts | 243° |
| 2026-04-14 10:24 | 50.04010 | 8.55792 | 363 ft | 14 kts | 250° |
| 2026-04-14 10:25 | 50.03973 | 8.55635 | 364 ft | 17 kts | 249° |
| 2026-04-14 10:25 | 50.03930 | 8.55462 | 360 ft | 18 kts | 249° |
| 2026-04-14 10:25 | 50.03884 | 8.55268 | 360 ft | 20 kts | 250° |
| 2026-04-14 10:25 | 50.03835 | 8.55061 | 363 ft | 21 kts | 250° |
| 2026-04-14 10:26 | 50.03782 | 8.54834 | 361 ft | 21 kts | 250° |
| 2026-04-14 10:26 | 50.03728 | 8.54610 | 359 ft | 23 kts | 249° |
| 2026-04-14 10:26 | 50.03684 | 8.54425 | 359 ft | 6 kts | 250° |
| 2026-04-14 10:26 | 50.03660 | 8.54342 | 358 ft | 9 kts | 234° |
| 2026-04-14 10:27 | 50.03601 | 8.54318 | 355 ft | 8 kts | 165° |
| 2026-04-14 10:27 | 50.03598 | 8.54320 | 355 ft | 0 kts | 163° |
| 2026-04-14 10:27 | 50.03562 | 8.54339 | 352 ft | 9 kts | 161° |
| 2026-04-14 10:27 | 50.03504 | 8.54378 | 353 ft | 8 kts | 138° |
| 2026-04-14 10:28 | 50.03497 | 8.54436 | 357 ft | 6 kts | 81° |
| 2026-04-14 10:28 | 50.03514 | 8.54511 | 360 ft | 12 kts | 70° |
| 2026-04-14 10:28 | 50.03559 | 8.54706 | 355 ft | 27 kts | 69° |
| 2026-04-14 10:28 | 50.03714 | 8.55351 | 361 ft | 100 kts | 69° |
| 2026-04-14 10:29 | 50.04033 | 8.56671 | 391 ft | 156 kts | 66° |
| 2026-04-14 10:29 | 50.04368 | 8.58233 | 1170 ft | 149 kts | 73° |
| 2026-04-14 10:29 | 50.04598 | 8.59860 | 1717 ft | 166 kts | 74° |
| 2026-04-14 10:29 | 50.04947 | 8.61657 | 2222 ft | 179 kts | 68° |
| 2026-04-14 10:30 | 50.05431 | 8.63533 | 2764 ft | 196 kts | 64° |
| 2026-04-14 10:30 | 50.05969 | 8.65589 | 3316 ft | 210 kts | 66° |
| 2026-04-14 10:30 | 50.06506 | 8.67797 | 3860 ft | 230 kts | 66° |
| 2026-04-14 10:30 | 50.07186 | 8.70145 | 4384 ft | 244 kts | 54° |
| 2026-04-14 10:31 | 50.08449 | 8.71900 | 5164 ft | 247 kts | 26° |
| 2026-04-14 10:31 | 50.10010 | 8.73019 | 5950 ft | 254 kts | 21° |
| 2026-04-14 10:31 | 50.11659 | 8.74095 | 6815 ft | 260 kts | 21° |
| 2026-04-14 10:31 | 50.13359 | 8.75212 | 7642 ft | 268 kts | 20° |
| 2026-04-14 10:32 | 50.15097 | 8.76370 | 8491 ft | 275 kts | 21° |
| 2026-04-14 10:32 | 50.16888 | 8.77572 | 9352 ft | 283 kts | 22° |
| 2026-04-14 10:32 | 50.18726 | 8.78812 | 10169 ft | 293 kts | 22° |
| 2026-04-14 10:32 | 50.20671 | 8.80127 | 10616 ft | 316 kts | 22° |
| 2026-04-14 10:33 | 50.22737 | 8.81526 | 11020 ft | 337 kts | 22° |
| 2026-04-14 10:33 | 50.24997 | 8.82808 | 11396 ft | 357 kts | 9° |
| 2026-04-14 10:33 | 50.27507 | 8.82754 | 11810 ft | 369 kts | 346° |
| 2026-04-14 10:33 | 50.29875 | 8.81188 | 11956 ft | 371 kts | 324° |
| 2026-04-14 10:34 | 50.32623 | 8.74710 | 11979 ft | 363 kts | 279° |
| 2026-04-14 10:34 | 50.32548 | 8.70776 | 12243 ft | 364 kts | 255° |
| 2026-04-14 10:34 | 50.31441 | 8.67311 | 13216 ft | 360 kts | 231° |
| 2026-04-14 10:35 | 50.30155 | 8.64031 | 14223 ft | 355 kts | 254° |
| 2026-04-14 10:35 | 50.29792 | 8.60278 | 15477 ft | 342 kts | 259° |
| 2026-04-14 10:35 | 50.29447 | 8.56595 | 16339 ft | 346 kts | 267° |
| 2026-04-14 10:35 | 50.29439 | 8.52733 | 16732 ft | 362 kts | 269° |
| 2026-04-14 10:36 | 50.29469 | 8.48748 | 17334 ft | 370 kts | 269° |
| 2026-04-14 10:36 | 50.29479 | 8.44750 | 18056 ft | 375 kts | 268° |
| 2026-04-14 10:36 | 50.29471 | 8.40627 | 18766 ft | 380 kts | 268° |
| 2026-04-14 10:36 | 50.29451 | 8.36464 | 19486 ft | 384 kts | 268° |
| 2026-04-14 10:37 | 50.29425 | 8.32274 | 20244 ft | 387 kts | 268° |
| 2026-04-14 10:37 | 50.29394 | 8.28051 | 21014 ft | 389 kts | 268° |
| 2026-04-14 10:37 | 50.29359 | 8.23792 | 21744 ft | 393 kts | 267° |
| 2026-04-14 10:37 | 50.29322 | 8.19545 | 22451 ft | 397 kts | 267° |
| 2026-04-14 10:38 | 50.29282 | 8.15212 | 23172 ft | 400 kts | 267° |
| 2026-04-14 10:38 | 50.29240 | 8.10851 | 23861 ft | 403 kts | 267° |
| 2026-04-14 10:38 | 50.29196 | 8.06441 | 24443 ft | 407 kts | 267° |
| 2026-04-14 10:38 | 50.29150 | 8.01984 | 25017 ft | 411 kts | 267° |
| 2026-04-14 10:39 | 50.29106 | 7.97489 | 25580 ft | 415 kts | 268° |
| 2026-04-14 10:39 | 50.29267 | 7.93000 | 26125 ft | 420 kts | 276° |
| 2026-04-14 10:39 | 50.29920 | 7.88518 | 26707 ft | 426 kts | 287° |
| 2026-04-14 10:39 | 50.31036 | 7.84201 | 27288 ft | 431 kts | 292° |
| 2026-04-14 10:40 | 50.31868 | 7.81298 | 27686 ft | 432 kts | 294° |
| 2026-04-14 10:40 | 50.33123 | 7.77005 | 28271 ft | 435 kts | 295° |
| 2026-04-14 10:40 | 50.34565 | 7.72822 | 28786 ft | 439 kts | 302° |
| 2026-04-14 10:40 | 50.36398 | 7.69049 | 29318 ft | 442 kts | 312° |
| 2026-04-14 10:41 | 50.38652 | 7.65761 | 29848 ft | 446 kts | 322° |
| 2026-04-14 10:41 | 50.41263 | 7.63101 | 30334 ft | 450 kts | 331° |
| 2026-04-14 10:41 | 50.44114 | 7.60982 | 30741 ft | 454 kts | 335° |
| 2026-04-14 10:41 | 50.47030 | 7.58982 | 31177 ft | 456 kts | 335° |
| 2026-04-14 10:42 | 50.49943 | 7.56992 | 31622 ft | 458 kts | 335° |
| 2026-04-14 10:42 | 50.52876 | 7.54981 | 32020 ft | 460 kts | 335° |
| 2026-04-14 10:42 | 50.55780 | 7.52810 | 32394 ft | 462 kts | 330° |
| 2026-04-14 10:42 | 50.58506 | 7.50217 | 32759 ft | 464 kts | 327° |
| 2026-04-14 10:43 | 50.61226 | 7.47451 | 33125 ft | 466 kts | 326° |
| 2026-04-14 10:43 | 50.63952 | 7.44655 | 33565 ft | 467 kts | 326° |
| 2026-04-14 10:43 | 50.66689 | 7.41845 | 33976 ft | 467 kts | 326° |
| 2026-04-14 10:43 | 50.69407 | 7.39044 | 34394 ft | 466 kts | 326° |
| 2026-04-14 10:44 | 50.72007 | 7.35976 | 34706 ft | 466 kts | 319° |
| 2026-04-14 10:44 | 50.74278 | 7.32409 | 35007 ft | 467 kts | 310° |
| 2026-04-14 10:44 | 50.76206 | 7.28273 | 35309 ft | 468 kts | 302° |
| 2026-04-14 10:44 | 50.77815 | 7.23808 | 35619 ft | 468 kts | 298° |
| 2026-04-14 10:45 | 50.79341 | 7.19248 | 35935 ft | 468 kts | 297° |
| 2026-04-14 10:45 | 50.80821 | 7.14665 | 36226 ft | 469 kts | 297° |
| 2026-04-14 10:45 | 50.82292 | 7.10050 | 36512 ft | 469 kts | 297° |
| 2026-04-14 10:45 | 50.83767 | 7.05418 | 36786 ft | 470 kts | 297° |
| 2026-04-14 10:46 | 50.85241 | 7.00799 | 37034 ft | 471 kts | 297° |
| 2026-04-14 10:46 | 50.86723 | 6.96174 | 37302 ft | 472 kts | 297° |
| 2026-04-14 10:46 | 50.88214 | 6.91543 | 37575 ft | 472 kts | 297° |
| 2026-04-14 10:46 | 50.89690 | 6.86954 | 37841 ft | 472 kts | 297° |
| 2026-04-14 10:47 | 50.91180 | 6.82311 | 38110 ft | 473 kts | 297° |
| 2026-04-14 10:47 | 50.92672 | 6.77652 | 38380 ft | 473 kts | 297° |
| 2026-04-14 10:47 | 50.94161 | 6.72996 | 38609 ft | 473 kts | 297° |
| 2026-04-14 10:47 | 50.95652 | 6.68322 | 38862 ft | 474 kts | 297° |
| 2026-04-14 10:48 | 50.97140 | 6.63652 | 39061 ft | 474 kts | 297° |
| 2026-04-14 10:48 | 50.98609 | 6.59029 | 39268 ft | 473 kts | 297° |
| 2026-04-14 10:48 | 51.00088 | 6.54367 | 39560 ft | 471 kts | 297° |
| 2026-04-14 10:48 | 51.01566 | 6.49702 | 39758 ft | 471 kts | 297° |
| 2026-04-14 10:49 | 51.03038 | 6.45047 | 39910 ft | 471 kts | 297° |
| 2026-04-14 10:49 | 51.04493 | 6.40435 | 40086 ft | 472 kts | 297° |
| 2026-04-14 10:49 | 51.05966 | 6.35760 | 40181 ft | 473 kts | 297° |
| 2026-04-14 10:50 | 51.08905 | 6.26404 | 40207 ft | 472 kts | 297° |
| 2026-04-14 10:50 | 51.11836 | 6.17037 | 40210 ft | 472 kts | 297° |
| 2026-04-14 10:51 | 51.14358 | 6.07402 | 40210 ft | 471 kts | 288° |
| 2026-04-14 10:51 | 51.16124 | 5.97335 | 40206 ft | 471 kts | 286° |
| 2026-04-14 10:52 | 51.17749 | 5.87266 | 40205 ft | 471 kts | 285° |
| 2026-04-14 10:52 | 51.19925 | 5.77437 | 40196 ft | 469 kts | 293° |
| 2026-04-14 10:53 | 51.22420 | 5.67805 | 40202 ft | 468 kts | 294° |
| 2026-04-14 10:53 | 51.24938 | 5.58297 | 40200 ft | 467 kts | 294° |
| 2026-04-14 10:54 | 51.27460 | 5.48727 | 40197 ft | 466 kts | 294° |
| 2026-04-14 10:54 | 51.29950 | 5.39193 | 40195 ft | 467 kts | 294° |
| 2026-04-14 10:55 | 51.32438 | 5.29610 | 40194 ft | 467 kts | 294° |
| 2026-04-14 10:55 | 51.34919 | 5.20010 | 40207 ft | 465 kts | 294° |
| 2026-04-14 10:56 | 51.37383 | 5.10437 | 40204 ft | 464 kts | 294° |
| 2026-04-14 10:56 | 51.39818 | 5.00939 | 40204 ft | 464 kts | 294° |
| 2026-04-14 10:57 | 51.42260 | 4.91372 | 40208 ft | 464 kts | 294° |
| 2026-04-14 10:57 | 51.44697 | 4.81786 | 40208 ft | 464 kts | 294° |
| 2026-04-14 10:58 | 51.47115 | 4.72230 | 40202 ft | 463 kts | 293° |
| 2026-04-14 10:58 | 51.49529 | 4.62651 | 40209 ft | 462 kts | 293° |
| 2026-04-14 10:59 | 51.51937 | 4.53057 | 40207 ft | 462 kts | 293° |
| 2026-04-14 10:59 | 51.54337 | 4.43450 | 40209 ft | 462 kts | 293° |
| 2026-04-14 11:00 | 51.56726 | 4.33847 | 40207 ft | 462 kts | 293° |
| 2026-04-14 11:00 | 51.59099 | 4.24268 | 40205 ft | 462 kts | 293° |
| 2026-04-14 11:01 | 51.61472 | 4.14647 | 40203 ft | 462 kts | 292° |
| 2026-04-14 11:01 | 51.63835 | 4.05023 | 40198 ft | 462 kts | 292° |
| 2026-04-14 11:02 | 51.66174 | 3.95455 | 40193 ft | 462 kts | 292° |
| 2026-04-14 11:02 | 51.68530 | 3.85777 | 40178 ft | 462 kts | 292° |
| 2026-04-14 11:03 | 51.70866 | 3.76135 | 40187 ft | 461 kts | 292° |
| 2026-04-14 11:03 | 51.73194 | 3.66490 | 40193 ft | 461 kts | 292° |
| 2026-04-14 11:04 | 51.75496 | 3.56906 | 40199 ft | 461 kts | 292° |
| 2026-04-14 11:04 | 51.77808 | 3.47238 | 40199 ft | 461 kts | 292° |
| 2026-04-14 11:05 | 51.80111 | 3.37567 | 40187 ft | 461 kts | 292° |
| 2026-04-14 11:05 | 51.82405 | 3.27888 | 40210 ft | 460 kts | 292° |
| 2026-04-14 11:06 | 51.84191 | 3.17997 | 40208 ft | 463 kts | 281° |
| 2026-04-14 11:06 | 51.84319 | 3.07560 | 40205 ft | 467 kts | 268° |
| 2026-04-14 11:07 | 51.83699 | 2.97073 | 40206 ft | 468 kts | 266° |
| 2026-04-14 11:07 | 51.82963 | 2.86608 | 40195 ft | 468 kts | 266° |
| 2026-04-14 11:08 | 51.82232 | 2.76145 | 40199 ft | 468 kts | 266° |
| 2026-04-14 11:08 | 51.81521 | 2.65767 | 39957 ft | 464 kts | 266° |
| 2026-04-14 11:08 | 51.81166 | 2.60579 | 39251 ft | 466 kts | 267° |
| 2026-04-14 11:09 | 51.80805 | 2.55359 | 38437 ft | 468 kts | 267° |
| 2026-04-14 11:09 | 51.80439 | 2.50124 | 37581 ft | 469 kts | 267° |
| 2026-04-14 11:09 | 51.80072 | 2.44897 | 36826 ft | 468 kts | 267° |
| 2026-04-14 11:10 | 51.79335 | 2.34504 | 35403 ft | 463 kts | 268° |
| 2026-04-14 11:10 | 51.78966 | 2.29342 | 34647 ft | 462 kts | 268° |
| 2026-04-14 11:10 | 51.78600 | 2.24247 | 33764 ft | 463 kts | 268° |
| 2026-04-14 11:10 | 51.78239 | 2.19084 | 32903 ft | 461 kts | 269° |
| 2026-04-14 11:11 | 51.77938 | 2.13931 | 32059 ft | 460 kts | 269° |
| 2026-04-14 11:11 | 51.77648 | 2.08780 | 31177 ft | 460 kts | 269° |
| 2026-04-14 11:11 | 51.77351 | 2.03651 | 30507 ft | 456 kts | 269° |
| 2026-04-14 11:11 | 51.77048 | 1.98575 | 29830 ft | 451 kts | 269° |
| 2026-04-14 11:12 | 51.76750 | 1.93549 | 29167 ft | 446 kts | 269° |
| 2026-04-14 11:12 | 51.76453 | 1.88609 | 28572 ft | 439 kts | 269° |
| 2026-04-14 11:12 | 51.76157 | 1.83737 | 27969 ft | 434 kts | 269° |
| 2026-04-14 11:12 | 51.75862 | 1.78904 | 27363 ft | 429 kts | 269° |
| 2026-04-14 11:13 | 51.75571 | 1.74182 | 26766 ft | 424 kts | 269° |
| 2026-04-14 11:13 | 51.75274 | 1.69409 | 26171 ft | 420 kts | 268° |
| 2026-04-14 11:13 | 51.74981 | 1.64722 | 25586 ft | 416 kts | 268° |
| 2026-04-14 11:13 | 51.74691 | 1.60100 | 24999 ft | 413 kts | 268° |
| 2026-04-14 11:14 | 51.74405 | 1.55550 | 24405 ft | 414 kts | 268° |
| 2026-04-14 11:14 | 51.74110 | 1.50899 | 23763 ft | 419 kts | 267° |
| 2026-04-14 11:14 | 51.73808 | 1.46213 | 23065 ft | 418 kts | 267° |
| 2026-04-14 11:14 | 51.73506 | 1.41575 | 22430 ft | 413 kts | 267° |
| 2026-04-14 11:15 | 51.73206 | 1.36981 | 21804 ft | 409 kts | 266° |
| 2026-04-14 11:15 | 51.72908 | 1.32434 | 21192 ft | 406 kts | 266° |
| 2026-04-14 11:15 | 51.72611 | 1.27920 | 20590 ft | 404 kts | 266° |
| 2026-04-14 11:15 | 51.72313 | 1.23427 | 19986 ft | 402 kts | 265° |
| 2026-04-14 11:17 | 51.71994 | 1.18628 | 19336 ft | 399 kts | 265° |
| 2026-04-14 11:17 | 51.71691 | 1.14123 | 18721 ft | 397 kts | 265° |
| 2026-04-14 11:17 | 51.71396 | 1.09747 | 18091 ft | 395 kts | 264° |
| 2026-04-14 11:18 | 51.71097 | 1.05350 | 17469 ft | 392 kts | 264° |
| 2026-04-14 11:18 | 51.70800 | 1.01009 | 16885 ft | 388 kts | 264° |
| 2026-04-14 11:18 | 51.70505 | 0.96705 | 16300 ft | 384 kts | 264° |
| 2026-04-14 11:18 | 51.70212 | 0.92439 | 15811 ft | 379 kts | 264° |
| 2026-04-14 11:19 | 51.69923 | 0.88274 | 15372 ft | 376 kts | 264° |
| 2026-04-14 11:19 | 51.69631 | 0.84090 | 14904 ft | 374 kts | 264° |
| 2026-04-14 11:19 | 51.69338 | 0.79921 | 14440 ft | 371 kts | 264° |
| 2026-04-14 11:19 | 51.69047 | 0.75798 | 13977 ft | 368 kts | 264° |
| 2026-04-14 11:20 | 51.68758 | 0.71717 | 13486 ft | 365 kts | 264° |
| 2026-04-14 11:20 | 51.68473 | 0.67703 | 13027 ft | 363 kts | 263° |
| 2026-04-14 11:20 | 51.68189 | 0.63674 | 12584 ft | 361 kts | 263° |
| 2026-04-14 11:20 | 51.67899 | 0.59665 | 12148 ft | 359 kts | 263° |
| 2026-04-14 11:21 | 51.67616 | 0.55767 | 11885 ft | 339 kts | 263° |
| 2026-04-14 11:21 | 51.67346 | 0.52064 | 11632 ft | 326 kts | 263° |
| 2026-04-14 11:21 | 51.67088 | 0.48523 | 11330 ft | 307 kts | 263° |
| 2026-04-14 11:21 | 51.66852 | 0.45216 | 10904 ft | 288 kts | 263° |
| 2026-04-14 11:22 | 51.66621 | 0.42057 | 10247 ft | 282 kts | 263° |
| 2026-04-14 11:22 | 51.66467 | 0.40006 | 9929 ft | 273 kts | 263° |
| 2026-04-14 11:22 | 51.66242 | 0.36993 | 9563 ft | 272 kts | 263° |
| 2026-04-14 11:22 | 51.66014 | 0.33927 | 9242 ft | 278 kts | 262° |
| 2026-04-14 11:23 | 51.65787 | 0.30872 | 8966 ft | 271 kts | 262° |
| 2026-04-14 11:23 | 51.65563 | 0.27865 | 8549 ft | 269 kts | 262° |
| 2026-04-14 11:23 | 51.65343 | 0.24929 | 8201 ft | 265 kts | 261° |
| 2026-04-14 11:23 | 51.65134 | 0.22001 | 7898 ft | 262 kts | 263° |
| 2026-04-14 11:24 | 51.65061 | 0.19080 | 7637 ft | 258 kts | 265° |
| 2026-04-14 11:24 | 51.65008 | 0.16220 | 7382 ft | 251 kts | 266° |
| 2026-04-14 11:24 | 51.64960 | 0.13448 | 7129 ft | 245 kts | 266° |
| 2026-04-14 11:24 | 51.64908 | 0.10733 | 6876 ft | 239 kts | 266° |
| 2026-04-14 11:25 | 51.64871 | 0.08093 | 6628 ft | 234 kts | 266° |
| 2026-04-14 11:25 | 51.64840 | 0.05487 | 6377 ft | 231 kts | 265° |
| 2026-04-14 11:25 | 51.64758 | 0.02933 | 6101 ft | 227 kts | 262° |
| 2026-04-14 11:25 | 51.64605 | 0.00391 | 5944 ft | 228 kts | 261° |
| 2026-04-14 11:26 | 51.64448 | -0.02135 | 5826 ft | 226 kts | 261° |
| 2026-04-14 11:26 | 51.64301 | -0.04652 | 5721 ft | 225 kts | 261° |
| 2026-04-14 11:26 | 51.64163 | -0.07171 | 5617 ft | 225 kts | 261° |
| 2026-04-14 11:26 | 51.64023 | -0.09679 | 5508 ft | 225 kts | 261° |
| 2026-04-14 11:27 | 51.63884 | -0.12186 | 5410 ft | 225 kts | 261° |
| 2026-04-14 11:27 | 51.63748 | -0.14710 | 5321 ft | 225 kts | 261° |
| 2026-04-14 11:27 | 51.63617 | -0.17219 | 5209 ft | 225 kts | 261° |
| 2026-04-14 11:27 | 51.63490 | -0.19695 | 5103 ft | 224 kts | 261° |
| 2026-04-14 11:28 | 51.63360 | -0.22199 | 5005 ft | 224 kts | 261° |
| 2026-04-14 11:28 | 51.63227 | -0.24697 | 4910 ft | 223 kts | 261° |
| 2026-04-14 11:28 | 51.63103 | -0.27186 | 4795 ft | 223 kts | 261° |
| 2026-04-14 11:28 | 51.62985 | -0.29673 | 4696 ft | 222 kts | 261° |
| 2026-04-14 11:29 | 51.62871 | -0.32161 | 4588 ft | 222 kts | 261° |
| 2026-04-14 11:29 | 51.62761 | -0.34612 | 4474 ft | 222 kts | 261° |
| 2026-04-14 11:29 | 51.62646 | -0.37103 | 4435 ft | 223 kts | 261° |
| 2026-04-14 11:29 | 51.62528 | -0.39599 | 4373 ft | 223 kts | 261° |
| 2026-04-14 11:30 | 51.62412 | -0.42084 | 4328 ft | 222 kts | 261° |
| 2026-04-14 11:30 | 51.62303 | -0.44564 | 4268 ft | 221 kts | 261° |
| 2026-04-14 11:30 | 51.62200 | -0.47016 | 4217 ft | 222 kts | 261° |
| 2026-04-14 11:30 | 51.62091 | -0.49505 | 4177 ft | 223 kts | 261° |
| 2026-04-14 11:31 | 51.61975 | -0.51996 | 4116 ft | 223 kts | 261° |
| 2026-04-14 11:31 | 51.61861 | -0.54483 | 4067 ft | 223 kts | 261° |
| 2026-04-14 11:31 | 51.61751 | -0.56944 | 4018 ft | 222 kts | 261° |
| 2026-04-14 11:31 | 51.61638 | -0.59430 | 3965 ft | 223 kts | 261° |
| 2026-04-14 11:32 | 51.61523 | -0.61924 | 3918 ft | 223 kts | 261° |
| 2026-04-14 11:32 | 51.61408 | -0.64411 | 3872 ft | 223 kts | 261° |
| 2026-04-14 11:32 | 51.61294 | -0.66896 | 3694 ft | 222 kts | 261° |
| 2026-04-14 11:32 | 51.61137 | -0.69314 | 3503 ft | 212 kts | 251° |
| 2026-04-14 11:33 | 51.60441 | -0.71233 | 3329 ft | 197 kts | 219° |
| 2026-04-14 11:33 | 51.59320 | -0.72621 | 3173 ft | 208 kts | 212° |
| 2026-04-14 11:33 | 51.58104 | -0.73918 | 2975 ft | 210 kts | 211° |
| 2026-04-14 11:34 | 51.55650 | -0.76513 | 2609 ft | 212 kts | 210° |
| 2026-04-14 11:34 | 51.54447 | -0.77806 | 2510 ft | 211 kts | 210° |
| 2026-04-14 11:34 | 51.53168 | -0.78907 | 2478 ft | 208 kts | 193° |
| 2026-04-14 11:34 | 51.51752 | -0.78807 | 2504 ft | 206 kts | 162° |
| 2026-04-14 11:35 | 51.50465 | -0.77789 | 2500 ft | 207 kts | 152° |
| 2026-04-14 11:35 | 51.49229 | -0.76591 | 2503 ft | 201 kts | 151° |
| 2026-04-14 11:35 | 51.48221 | -0.75185 | 2507 ft | 191 kts | 122° |
| 2026-04-14 11:35 | 51.47788 | -0.73222 | 2500 ft | 182 kts | 111° |
| 2026-04-14 11:36 | 51.47616 | -0.71214 | 2487 ft | 183 kts | 98° |
| 2026-04-14 11:36 | 51.47619 | -0.69166 | 2487 ft | 183 kts | 96° |
| 2026-04-14 11:36 | 51.47619 | -0.67146 | 2447 ft | 181 kts | 96° |
| 2026-04-14 11:36 | 51.47628 | -0.65183 | 2178 ft | 171 kts | 96° |
| 2026-04-14 11:37 | 51.47638 | -0.63341 | 1928 ft | 159 kts | 97° |
| 2026-04-14 11:37 | 51.47648 | -0.61620 | 1720 ft | 150 kts | 97° |
| 2026-04-14 11:37 | 51.47658 | -0.59993 | 1494 ft | 141 kts | 97° |
| 2026-04-14 11:37 | 51.47666 | -0.58469 | 1329 ft | 135 kts | 96° |
| 2026-04-14 11:38 | 51.47676 | -0.56991 | 1151 ft | 135 kts | 95° |
| 2026-04-14 11:38 | 51.47691 | -0.55490 | 974 ft | 135 kts | 94° |
| 2026-04-14 11:38 | 51.47706 | -0.54002 | 780 ft | 133 kts | 95° |
| 2026-04-14 11:38 | 51.47710 | -0.52476 | 626 ft | 138 kts | 97° |
| 2026-04-14 11:39 | 51.47731 | -0.50939 | 449 ft | 138 kts | 97° |
| 2026-04-14 11:39 | 51.47738 | -0.49409 | 247 ft | 135 kts | 99° |
| 2026-04-14 11:39 | 51.47765 | -0.47914 | 107 ft | 131 kts | 97° |
| 2026-04-14 11:39 | 51.47756 | -0.46656 | 99 ft | 81 kts | 89° |
| 2026-04-14 11:40 | 51.47742 | -0.46211 | 95 ft | 21 kts | 121° |
| 2026-04-14 11:40 | 51.47629 | -0.46068 | 97 ft | 19 kts | 161° |
| 2026-04-14 11:40 | 51.47526 | -0.46129 | 95 ft | 15 kts | 237° |
| 2026-04-14 11:40 | 51.47505 | -0.46257 | 97 ft | 3 kts | 234° |
| 2026-04-14 11:41 | 51.47457 | -0.46300 | 96 ft | 0 kts | 201° |
| 2026-04-14 11:41 | 51.47446 | -0.46307 | 95 ft | 4 kts | 200° |
| 2026-04-14 11:41 | 51.47435 | -0.46313 | 95 ft | 0 kts | 199° |